createdAt,value
2023-04-15T00:02:15.650Z,4.20
2023-04-15T00:04:46.263Z,4.72
2023-04-15T00:07:14.945Z,4.93
2023-04-15T00:09:44.882Z,4.43
2023-04-15T00:12:12.854Z,5.45
2023-04-15T00:14:39.667Z,4.65
2023-04-15T00:17:06.523Z,4.78
2023-04-15T00:19:34.681Z,4.68
2023-04-15T00:22:01.526Z,6.22
2023-04-15T00:24:28.280Z,4.38
2023-04-15T00:26:55.086Z,5.00
2023-04-15T00:29:21.911Z,4.53
2023-04-15T00:31:48.624Z,4.88
2023-04-15T00:34:15.385Z,4.75
2023-04-15T00:36:42.280Z,4.60
2023-04-15T00:39:09.217Z,5.63
2023-04-15T00:41:39.264Z,5.28
2023-04-15T00:44:09.441Z,5.25
2023-04-15T00:46:40.327Z,5.03
2023-04-15T00:49:11.201Z,5.35
2023-04-15T00:51:38.003Z,6.25
2023-04-15T00:54:05.991Z,5.32
2023-04-15T00:56:36.965Z,7.80
2023-04-15T00:59:04.513Z,15.73
2023-04-15T01:01:31.700Z,5.78
2023-04-15T01:03:58.880Z,5.78
2023-04-15T01:06:27.415Z,5.07
2023-04-15T01:08:56.096Z,5.65
2023-04-15T01:11:24.181Z,5.03
2023-04-15T01:13:52.330Z,5.32
2023-04-15T01:16:19.997Z,5.28
2023-04-15T01:18:47.015Z,5.55
2023-04-15T01:21:13.817Z,6.63
2023-04-15T01:23:40.752Z,5.40
2023-04-15T01:26:09.269Z,5.35
2023-04-15T01:28:37.559Z,6.88
2023-04-15T01:31:12.850Z,6.20
2023-04-15T01:33:41.178Z,5.75
2023-04-15T01:36:09.752Z,5.53
2023-04-15T01:38:39.547Z,5.68
2023-04-15T01:41:08.196Z,5.40
2023-04-15T01:43:37.165Z,5.07
2023-04-15T01:46:03.997Z,5.72
2023-04-15T01:48:31.266Z,4.93
2023-04-15T01:50:58.607Z,6.22
2023-04-15T01:53:26.005Z,5.78
2023-04-15T01:55:52.856Z,6.28
2023-04-15T01:58:20.050Z,5.43
2023-04-15T02:00:47.285Z,6.00
2023-04-15T02:03:14.209Z,5.07
2023-04-15T02:05:41.078Z,5.43
2023-04-15T02:08:07.867Z,5.80
2023-04-15T02:10:35.519Z,5.63
2023-04-15T02:13:02.624Z,6.05
2023-04-15T02:15:29.601Z,6.63
2023-04-15T02:17:57.024Z,6.28
2023-04-15T02:20:23.980Z,6.70
2023-04-15T02:22:50.852Z,7.00
2023-04-15T02:25:17.811Z,6.22
2023-04-15T02:27:44.616Z,6.18
2023-04-15T02:30:11.636Z,6.85
2023-04-15T02:32:38.530Z,6.40
2023-04-15T02:35:06.789Z,7.20
2023-04-15T02:37:40.490Z,6.55
2023-04-15T02:40:10.226Z,6.65
2023-04-15T02:42:36.978Z,6.57
2023-04-15T02:45:04.040Z,7.18
2023-04-15T02:47:30.871Z,7.50
2023-04-15T02:49:58.716Z,6.72
2023-04-15T02:52:25.684Z,7.13
2023-04-15T02:54:53.920Z,6.70
2023-04-15T02:57:22.361Z,7.10
2023-04-15T02:59:49.119Z,6.75
2023-04-15T03:02:16.188Z,6.65
2023-04-15T03:04:46.149Z,7.35
2023-04-15T03:07:12.972Z,7.45
2023-04-15T03:09:43.460Z,6.63
2023-04-15T03:12:10.214Z,7.47
2023-04-15T03:14:37.032Z,7.25
2023-04-15T03:17:04.915Z,6.88
2023-04-15T03:19:32.077Z,7.32
2023-04-15T03:21:58.879Z,7.75
2023-04-15T03:24:26.312Z,7.63
2023-04-15T03:26:53.069Z,7.32
2023-04-15T03:29:19.864Z,8.55
2023-04-15T03:31:46.965Z,8.50
2023-04-15T03:34:13.691Z,8.15
2023-04-15T03:36:40.694Z,8.50
2023-04-15T03:39:07.475Z,7.88
2023-04-15T03:41:34.286Z,8.00
2023-04-15T03:44:01.177Z,8.38
2023-04-15T03:46:28.129Z,8.10
2023-04-15T03:48:54.978Z,7.78
2023-04-15T03:51:22.256Z,7.97
2023-04-15T03:53:49.331Z,8.05
2023-04-15T03:56:16.070Z,7.80
2023-04-15T03:58:42.878Z,8.52
2023-04-15T04:01:09.869Z,8.00
2023-04-15T04:03:37.336Z,8.20
2023-04-15T04:06:04.693Z,7.75
2023-04-15T04:08:31.438Z,7.97
2023-04-15T04:10:58.227Z,9.07
2023-04-15T04:13:24.990Z,8.48
2023-04-15T04:15:51.810Z,8.77
2023-04-15T04:18:18.687Z,8.75
2023-04-15T04:20:45.746Z,9.05
2023-04-15T04:23:12.618Z,8.93
2023-04-15T04:25:39.411Z,8.60
2023-04-15T04:28:06.171Z,8.45
2023-04-15T04:30:33.113Z,8.35
2023-04-15T04:33:00.047Z,8.32
2023-04-15T04:35:27.412Z,8.20
2023-04-15T04:37:54.185Z,9.32
2023-04-15T04:40:21.216Z,9.05
2023-04-15T04:42:48.154Z,8.55
2023-04-15T04:45:15.173Z,8.43
2023-04-15T04:47:41.990Z,8.60
2023-04-15T04:50:09.213Z,8.82
2023-04-15T04:52:36.083Z,9.68
2023-04-15T04:55:02.975Z,9.23
2023-04-15T04:57:29.772Z,8.35
2023-04-15T04:59:56.682Z,9.77
2023-04-15T05:02:23.779Z,8.77
2023-04-15T05:04:54.404Z,8.75
2023-04-15T05:07:21.381Z,9.10
2023-04-15T05:09:48.284Z,9.15
2023-04-15T05:12:16.225Z,8.55
2023-04-15T05:14:43.042Z,9.48
2023-04-15T05:17:09.828Z,8.95
2023-04-15T05:19:39.059Z,9.52
2023-04-15T05:22:06.299Z,9.90
2023-04-15T05:24:33.065Z,9.30
2023-04-15T05:27:01.294Z,9.35
2023-04-15T05:29:28.020Z,8.52
2023-04-15T05:31:54.920Z,9.07
2023-04-15T05:34:21.688Z,8.70
2023-04-15T05:36:48.834Z,8.32
2023-04-15T05:39:17.605Z,9.07
2023-04-15T05:41:44.831Z,9.15
2023-04-15T05:44:12.012Z,9.15
2023-04-15T05:46:39.347Z,9.48
2023-04-15T05:49:06.264Z,9.63
2023-04-15T05:51:33.049Z,9.50
2023-04-15T05:53:59.831Z,9.60
2023-04-15T05:56:27.136Z,9.38
2023-04-15T05:58:54.010Z,9.18
2023-04-15T06:01:20.906Z,10.48
2023-04-15T06:03:48.797Z,9.50
2023-04-15T06:06:16.035Z,9.45
2023-04-15T06:08:42.808Z,9.88
2023-04-15T06:11:09.607Z,10.48
2023-04-15T06:13:36.361Z,10.07
2023-04-15T06:16:04.155Z,9.55
2023-04-15T06:18:30.930Z,9.32
2023-04-15T06:20:57.778Z,9.70
2023-04-15T06:23:26.327Z,9.77
2023-04-15T06:25:53.799Z,9.52
2023-04-15T06:28:20.521Z,9.82
2023-04-15T06:30:47.469Z,9.90
2023-04-15T06:33:14.227Z,9.25
2023-04-15T06:35:41.097Z,9.25
2023-04-15T06:38:07.899Z,9.77
2023-04-15T06:40:35.567Z,9.10
2023-04-15T06:43:02.359Z,9.27
2023-04-15T06:45:29.130Z,9.10
2023-04-15T06:47:56.015Z,9.48
2023-04-15T06:50:22.877Z,8.73
2023-04-15T06:52:49.940Z,8.90
2023-04-15T06:55:16.757Z,8.63
2023-04-15T06:57:43.544Z,8.88
2023-04-15T07:00:12.064Z,8.30
2023-04-15T07:02:39.208Z,8.15
2023-04-15T07:05:07.127Z,8.52
2023-04-15T07:07:33.904Z,8.43
2023-04-15T07:10:02.103Z,9.20
2023-04-15T07:12:29.010Z,8.52
2023-04-15T07:14:55.936Z,8.88
2023-04-15T07:17:22.832Z,7.85
2023-04-15T07:19:49.672Z,7.80
2023-04-15T07:22:16.549Z,8.48
2023-04-15T07:24:43.326Z,8.35
2023-04-15T07:27:10.154Z,7.65
2023-04-15T07:29:36.969Z,8.25
2023-04-15T07:32:03.927Z,8.40
2023-04-15T07:34:31.521Z,8.20
2023-04-15T07:36:59.389Z,7.93
2023-04-15T07:39:26.436Z,8.98
2023-04-15T07:41:53.269Z,6.90
2023-04-15T07:44:20.058Z,6.72
2023-04-15T07:46:46.921Z,6.95
2023-04-15T07:49:14.456Z,5.85
2023-04-15T07:51:41.227Z,6.93
2023-04-15T07:59:31.221Z,6.10
2023-04-15T08:01:58.457Z,5.78
2023-04-15T08:04:25.790Z,5.43
2023-04-15T08:06:52.796Z,4.60
2023-04-15T08:09:20.029Z,4.68
2023-04-15T08:11:49.356Z,8.50
2023-04-15T08:14:16.750Z,5.85
2023-04-15T08:16:43.550Z,4.90
2023-04-15T08:19:10.525Z,4.95
2023-04-15T08:21:37.347Z,5.25
2023-04-15T08:24:04.279Z,4.82
2023-04-15T08:26:31.211Z,5.45
2023-04-15T08:28:58.105Z,5.40
2023-04-15T08:31:27.909Z,5.15
2023-04-15T08:33:56.863Z,5.43
2023-04-15T08:36:23.621Z,4.93
2023-04-15T08:38:50.581Z,4.78
2023-04-15T08:41:25.805Z,3.85
2023-04-15T08:44:13.569Z,4.55
2023-04-15T08:46:42.814Z,4.65
2023-04-15T08:49:14.830Z,4.45
2023-04-15T08:51:42.036Z,4.00
2023-04-15T08:54:09.759Z,4.38
2023-04-15T08:56:39.043Z,3.10
2023-04-15T08:59:07.170Z,2.55
2023-04-15T09:01:34.383Z,2.53
2023-04-15T09:04:03.400Z,2.20
2023-04-15T09:06:30.224Z,2.17
2023-04-15T09:08:58.085Z,2.28
2023-04-15T09:11:24.937Z,2.42
2023-04-15T09:13:52.356Z,2.30
2023-04-15T09:16:19.608Z,2.40
2023-04-15T09:18:46.632Z,2.20
2023-04-15T09:21:17.908Z,2.35
2023-04-15T09:24:01.647Z,2.53
2023-04-15T09:26:37.660Z,2.75
2023-04-15T09:29:09.888Z,3.08
2023-04-15T09:31:37.859Z,2.92
2023-04-15T09:34:04.966Z,2.95
2023-04-15T09:36:50.849Z,2.88
2023-04-15T09:39:18.066Z,3.00
2023-04-15T09:41:45.291Z,3.53
2023-04-15T09:44:25.733Z,3.97
2023-04-15T09:46:52.599Z,3.42
2023-04-15T09:49:20.961Z,3.58
2023-04-15T09:52:03.955Z,3.38
2023-04-15T09:54:38.955Z,3.00
2023-04-15T09:57:10.341Z,2.72
2023-04-15T09:59:44.706Z,2.65
2023-04-15T10:02:13.778Z,2.47
2023-04-15T10:04:41.646Z,2.38
2023-04-15T10:07:10.014Z,2.45
2023-04-15T10:09:38.335Z,2.40
2023-04-15T10:12:05.768Z,2.40
2023-04-15T10:14:35.755Z,2.20
2023-04-15T10:17:04.869Z,2.13
2023-04-15T10:19:37.417Z,2.92
2023-04-15T10:22:07.821Z,2.33
2023-04-15T10:24:35.418Z,2.20
2023-04-15T10:27:06.003Z,2.20
2023-04-15T10:29:37.747Z,2.03
2023-04-15T10:32:08.296Z,2.28
2023-04-15T10:34:35.791Z,2.30
2023-04-15T10:37:06.525Z,2.47
2023-04-15T10:39:34.191Z,2.92
2023-04-15T10:42:15.514Z,2.85
2023-04-15T10:44:50.869Z,3.13
2023-04-15T10:47:19.861Z,3.25
2023-04-15T10:49:59.230Z,3.92
2023-04-15T10:52:31.008Z,3.25
2023-04-15T10:55:12.820Z,3.33
2023-04-15T10:57:41.124Z,3.30
2023-04-15T11:00:19.315Z,3.00
2023-04-15T11:02:47.770Z,2.78
2023-04-15T11:05:19.128Z,2.95
2023-04-15T11:07:56.876Z,2.60
2023-04-15T11:10:32.665Z,2.40
2023-04-15T11:13:02.401Z,3.78
2023-04-15T11:15:42.532Z,2.25
2023-04-15T11:18:19.347Z,1.77
2023-04-15T11:20:59.350Z,1.27
2023-04-15T11:23:41.355Z,1.90
2023-04-15T11:26:10.248Z,1.73
2023-04-15T11:28:41.475Z,1.65
2023-04-15T11:31:13.985Z,1.83
2023-04-15T11:34:02.011Z,1.90
2023-04-15T11:36:32.211Z,1.52
2023-04-15T11:39:00.233Z,1.70
2023-04-15T11:41:27.141Z,1.70
2023-04-15T11:43:54.037Z,1.60
2023-04-15T11:46:22.728Z,2.08
2023-04-15T11:48:51.953Z,1.08
2023-04-15T11:51:21.009Z,1.70
2023-04-15T11:53:50.606Z,1.70
2023-04-15T11:56:23.342Z,1.55
2023-04-15T11:59:00.190Z,2.40
2023-04-15T12:01:39.525Z,2.10
2023-04-15T12:04:20.876Z,1.30
2023-04-15T12:06:50.141Z,1.45
2023-04-15T12:09:17.485Z,1.42
2023-04-15T12:11:47.562Z,2.75
2023-04-15T12:14:26.718Z,1.15
2023-04-15T12:16:58.622Z,1.02
2023-04-15T12:19:38.297Z,1.60
2023-04-15T12:22:16.470Z,2.05
2023-04-15T12:24:47.129Z,1.58
2023-04-15T12:27:21.514Z,1.23
2023-04-15T12:29:48.361Z,1.60
2023-04-15T12:32:17.498Z,1.33
2023-04-15T12:34:52.063Z,1.65
2023-04-15T12:37:19.001Z,1.48
2023-04-15T12:39:49.490Z,1.40
2023-04-15T12:42:17.870Z,1.35
2023-04-15T12:47:30.280Z,1.33
2023-04-15T12:50:05.762Z,1.60
2023-04-15T12:55:08.509Z,0.90
2023-04-15T12:57:35.389Z,1.17
2023-04-15T13:00:02.562Z,1.35
2023-04-15T13:02:29.594Z,1.30
2023-04-15T13:04:56.648Z,1.58
2023-04-15T13:07:23.962Z,1.13
2023-04-15T13:09:50.878Z,1.40
2023-04-15T13:12:17.676Z,1.17
2023-04-15T13:14:44.588Z,1.20
2023-04-15T13:17:11.606Z,1.02
2023-04-15T13:19:39.220Z,1.30
2023-04-15T13:22:07.252Z,1.38
2023-04-15T13:24:34.100Z,1.15
2023-04-15T13:27:01.016Z,1.10
2023-04-15T13:29:27.973Z,1.35
2023-04-15T13:31:54.891Z,1.40
2023-04-15T13:34:21.769Z,1.80
2023-04-15T13:36:48.909Z,1.23
2023-04-15T13:39:17.165Z,1.27
2023-04-15T13:41:44.007Z,1.38
2023-04-15T13:44:12.328Z,1.23
2023-04-15T13:49:24.553Z,1.23
2023-04-15T13:51:51.731Z,0.88
2023-04-15T13:54:18.544Z,1.40
2023-04-15T13:56:45.455Z,0.98
2023-04-15T14:07:30.892Z,1.10
2023-04-15T14:12:39.402Z,1.20
2023-04-15T14:15:06.841Z,1.27
2023-04-15T14:20:19.790Z,1.10
2023-04-15T14:22:46.713Z,2.72
2023-04-15T14:25:23.065Z,1.55
2023-04-15T14:27:57.532Z,1.35
2023-04-15T14:35:45.148Z,1.27
2023-04-15T14:38:11.987Z,1.20
2023-04-15T14:40:39.206Z,1.23
2023-04-15T14:43:08.566Z,1.27
2023-04-15T14:45:36.388Z,0.95
2023-04-15T14:48:03.571Z,1.40
2023-04-15T14:50:30.610Z,1.00
2023-04-15T14:52:57.507Z,1.83
2023-04-15T14:55:24.554Z,2.08
2023-04-15T14:57:51.574Z,1.77
2023-04-15T15:00:18.707Z,2.00
2023-04-15T15:02:47.579Z,1.70
2023-04-15T15:05:15.210Z,1.13
2023-04-15T15:07:42.285Z,1.10
2023-04-15T15:10:09.268Z,1.73
2023-04-15T15:12:36.408Z,3.22
2023-04-15T15:15:12.393Z,1.50
2023-04-15T15:17:43.020Z,1.83
2023-04-15T15:20:10.584Z,2.17
2023-04-15T15:22:37.355Z,1.30
2023-04-15T15:25:04.799Z,1.80
2023-04-15T15:27:32.057Z,1.10
2023-04-15T15:29:59.320Z,1.08
2023-04-15T15:32:26.268Z,1.10
2023-04-15T15:34:53.375Z,1.42
2023-04-15T15:37:20.305Z,1.52
2023-04-15T15:39:47.123Z,1.13
2023-04-15T15:42:14.116Z,2.00
2023-04-15T15:44:40.999Z,1.27
2023-04-15T15:47:08.034Z,1.40
2023-04-15T15:49:34.951Z,1.55
2023-04-15T15:52:01.796Z,1.20
2023-04-15T15:54:29.266Z,1.17
2023-04-15T15:56:57.686Z,1.02
2023-04-15T15:59:27.580Z,2.17
2023-04-15T16:01:54.387Z,1.52
2023-04-15T16:04:21.751Z,1.33
2023-04-15T16:06:49.595Z,1.83
2023-04-15T16:09:17.888Z,1.45
2023-04-15T16:11:45.817Z,1.90
2023-04-15T16:14:14.040Z,1.60
2023-04-15T16:16:41.133Z,1.33
2023-04-15T16:19:07.940Z,1.77
2023-04-15T16:21:35.625Z,1.65
2023-04-15T16:24:03.058Z,2.03
2023-04-15T16:26:30.356Z,1.70
2023-04-15T16:28:57.283Z,1.67
2023-04-15T16:31:24.337Z,1.90
2023-04-15T16:33:51.337Z,1.95
2023-04-15T16:36:18.138Z,1.67
2023-04-15T16:38:48.472Z,1.50
2023-04-15T16:41:15.923Z,2.15
2023-04-15T16:43:42.749Z,1.70
2023-04-15T16:46:09.579Z,1.50
2023-04-15T16:48:36.404Z,2.15
2023-04-15T16:51:03.266Z,1.92
2023-04-15T16:53:30.047Z,1.65
2023-04-15T16:55:57.048Z,1.85
2023-04-15T16:58:31.843Z,1.48
2023-04-15T17:00:59.319Z,1.20
2023-04-15T17:03:27.499Z,1.70
2023-04-15T17:05:54.381Z,1.55
2023-04-15T17:08:21.165Z,2.47
2023-04-15T17:10:48.008Z,2.15
2023-04-15T17:13:14.899Z,1.38
2023-04-15T17:15:41.777Z,1.52
2023-04-15T17:18:09.445Z,1.52
2023-04-15T17:20:36.302Z,1.30
2023-04-15T17:23:04.052Z,1.35
2023-04-15T17:25:31.056Z,1.77
2023-04-15T17:27:58.050Z,1.27
2023-04-15T17:30:27.871Z,2.17
2023-04-15T17:32:55.105Z,1.77
2023-04-15T17:35:23.827Z,1.83
2023-04-15T17:37:51.230Z,2.92
2023-04-15T17:40:19.277Z,2.30
2023-04-15T17:42:46.318Z,2.38
2023-04-15T17:45:15.173Z,2.10
2023-04-15T17:47:43.057Z,3.00
2023-04-15T17:50:10.320Z,2.58
2023-04-15T17:52:37.100Z,2.80
2023-04-15T17:55:12.167Z,2.17
2023-04-15T17:57:42.311Z,2.17
2023-04-15T18:00:10.730Z,2.13
2023-04-15T18:02:38.249Z,1.90
2023-04-15T18:05:07.375Z,2.08
2023-04-15T18:07:38.171Z,2.00
2023-04-15T18:10:05.715Z,1.98
2023-04-15T18:12:33.819Z,1.67
2023-04-15T18:15:00.828Z,2.22
2023-04-15T18:17:28.490Z,2.00
2023-04-15T18:19:56.052Z,2.90
2023-04-15T18:22:22.863Z,1.80
2023-04-15T18:24:50.989Z,1.58
2023-04-15T18:27:18.332Z,1.30
2023-04-15T18:29:49.506Z,1.95
2023-04-15T18:32:16.754Z,1.42
2023-04-15T18:34:43.506Z,1.50
2023-04-15T18:37:10.457Z,2.00
2023-04-15T18:39:37.244Z,3.20
2023-04-15T18:42:06.526Z,2.45
2023-04-15T18:44:36.107Z,3.00
2023-04-15T18:47:05.839Z,2.60
2023-04-15T18:49:33.324Z,1.40
2023-04-15T18:52:02.959Z,1.77
2023-04-15T18:54:31.518Z,3.45
2023-04-15T18:56:58.650Z,2.20
2023-04-15T18:59:29.702Z,1.55
2023-04-15T19:01:58.158Z,2.47
2023-04-15T19:04:25.750Z,1.90
2023-04-15T19:06:52.704Z,1.67
2023-04-15T19:09:23.956Z,1.23
2023-04-15T19:11:50.885Z,1.70
2023-04-15T19:14:19.655Z,1.52
2023-04-15T19:16:47.961Z,1.88
2023-04-15T19:19:15.154Z,1.48
2023-04-15T19:21:42.073Z,1.50
2023-04-15T19:24:10.194Z,1.73
2023-04-15T19:26:37.233Z,1.90
2023-04-15T19:29:04.240Z,1.80
2023-04-15T19:31:31.694Z,1.70
2023-04-15T19:33:58.479Z,2.05
2023-04-15T19:36:25.429Z,2.05
2023-04-15T19:38:54.398Z,11.40
2023-04-15T19:41:26.582Z,2.28
2023-04-15T19:43:53.441Z,2.28
2023-04-15T19:46:20.519Z,1.35
2023-04-15T19:48:47.521Z,3.90
2023-04-15T19:51:16.349Z,2.22
2023-04-15T19:53:43.165Z,2.13
2023-04-15T19:56:10.066Z,3.13
2023-04-15T19:58:37.426Z,15.30
2023-04-15T20:01:04.284Z,2.25
2023-04-15T20:03:31.382Z,7.03
2023-04-15T20:05:58.369Z,10.07
2023-04-15T20:08:25.195Z,1.83
2023-04-15T20:10:51.963Z,2.00
2023-04-15T20:13:18.868Z,2.17
2023-04-15T20:15:45.905Z,1.60
2023-04-15T20:18:12.711Z,1.63
2023-04-15T20:20:40.358Z,1.77
2023-04-15T20:23:07.174Z,1.65
2023-04-15T20:25:33.983Z,1.77
2023-04-15T20:28:01.194Z,2.90
2023-04-15T20:30:29.710Z,2.50
2023-04-15T20:32:56.851Z,2.45
2023-04-15T20:35:25.146Z,2.20
2023-04-15T20:37:52.131Z,2.75
2023-04-15T20:40:19.083Z,1.85
2023-04-15T20:42:48.551Z,2.15
2023-04-15T20:45:15.493Z,2.05
2023-04-15T20:47:42.557Z,1.90
2023-04-15T20:50:10.235Z,2.15
2023-04-15T20:52:37.014Z,2.20
2023-04-15T20:55:04.054Z,2.10
2023-04-15T20:57:30.851Z,3.05
2023-04-15T20:59:57.762Z,2.35
2023-04-15T21:02:25.193Z,3.03
2023-04-15T21:04:52.162Z,2.05
2023-04-15T21:07:18.976Z,1.98
2023-04-15T21:09:46.934Z,2.15
2023-04-15T21:12:13.832Z,2.17
2023-04-15T21:14:40.713Z,1.80
2023-04-15T21:17:10.891Z,1.60
2023-04-15T21:19:38.759Z,1.73
2023-04-15T21:22:05.732Z,1.52
2023-04-15T21:24:32.675Z,1.50
2023-04-15T21:26:59.637Z,2.17
2023-04-15T21:29:26.424Z,1.63
2023-04-15T21:31:53.765Z,1.90
2023-04-15T21:34:20.619Z,2.17
2023-04-15T21:36:47.498Z,1.70
2023-04-15T21:39:14.347Z,2.03
2023-04-15T21:41:41.240Z,2.15
2023-04-15T21:44:08.173Z,1.90
2023-04-15T21:46:36.105Z,1.83
2023-04-15T21:49:03.562Z,2.10
2023-04-15T21:51:31.434Z,3.28
2023-04-15T21:53:58.761Z,2.00
2023-04-15T21:56:26.064Z,2.13
2023-04-15T21:58:59.398Z,11.65
2023-04-15T22:01:26.958Z,1.92
2023-04-15T22:03:55.293Z,2.63
2023-04-15T22:06:22.374Z,2.13
2023-04-15T22:09:11.409Z,1.92
2023-04-15T22:11:37.006Z,2.17
2023-04-15T22:14:03.919Z,2.30
2023-04-15T22:16:30.733Z,2.78
2023-04-15T22:18:57.600Z,2.25
2023-04-15T22:21:24.471Z,1.75
2023-04-15T22:23:51.966Z,1.70
2023-04-15T22:26:18.938Z,2.83
2023-04-15T22:28:45.770Z,1.67
2023-04-15T22:31:13.735Z,2.00
2023-04-15T22:33:40.653Z,2.30
2023-04-15T22:36:07.733Z,2.05
2023-04-15T22:38:34.476Z,2.28
2023-04-15T22:41:01.296Z,1.90
2023-04-15T22:43:28.274Z,2.53
2023-04-15T22:45:55.507Z,2.08
2023-04-15T22:48:23.068Z,2.65
2023-04-15T22:50:50.127Z,2.65
2023-04-15T22:53:17.963Z,2.67
2023-04-15T22:55:47.079Z,3.10
2023-04-15T22:58:15.051Z,2.80
2023-04-15T23:00:42.245Z,2.95
2023-04-15T23:03:09.414Z,2.33
2023-04-15T23:05:36.713Z,2.30
2023-04-15T23:08:03.766Z,3.90
2023-04-15T23:10:30.975Z,2.97
2023-04-15T23:12:57.954Z,3.10
2023-04-15T23:15:25.465Z,2.65
2023-04-15T23:17:52.395Z,2.67
2023-04-15T23:20:19.181Z,2.95
2023-04-15T23:22:46.283Z,3.17
2023-04-15T23:25:13.057Z,3.75
2023-04-15T23:27:39.926Z,2.53
2023-04-15T23:30:07.739Z,3.35
2023-04-15T23:32:35.168Z,3.45
2023-04-15T23:35:02.032Z,3.90
2023-04-15T23:37:30.329Z,3.40
2023-04-15T23:39:57.230Z,2.78
2023-04-15T23:42:24.214Z,2.17
2023-04-15T23:44:51.868Z,2.67
2023-04-15T23:47:18.683Z,2.40
2023-04-15T23:49:45.494Z,3.22
2023-04-15T23:52:12.498Z,3.13
2023-04-15T23:54:40.163Z,3.85
2023-04-15T23:57:07.140Z,3.40
2023-04-15T23:59:33.934Z,3.13
